createdAt,value
2022-09-10T00:02:15.585Z,0.83
2022-09-10T00:04:42.523Z,0.90
2022-09-10T00:07:09.866Z,0.83
2022-09-10T00:09:37.514Z,1.00
2022-09-10T00:12:04.634Z,0.80
2022-09-10T00:14:31.563Z,0.80
2022-09-10T00:16:58.379Z,0.80
2022-09-10T00:19:25.404Z,1.00
2022-09-10T00:21:52.239Z,1.60
2022-09-10T00:24:19.229Z,0.90
2022-09-10T00:26:46.535Z,1.20
2022-09-10T00:29:15.908Z,0.97
2022-09-10T00:31:43.579Z,1.50
2022-09-10T00:34:12.090Z,1.87
2022-09-10T00:36:41.652Z,1.70
2022-09-10T00:39:11.348Z,1.83
2022-09-10T00:41:40.444Z,1.80
2022-09-10T00:44:31.553Z,1.80
2022-09-10T00:47:00.684Z,1.47
2022-09-10T00:49:33.953Z,1.20
2022-09-10T00:52:01.775Z,1.60
2022-09-10T00:54:31.459Z,1.30
2022-09-10T00:57:05.713Z,1.60
2022-09-10T00:59:33.169Z,1.43
2022-09-10T01:02:01.075Z,1.40
2022-09-10T01:04:28.833Z,1.30
2022-09-10T01:06:56.224Z,1.50
2022-09-10T01:09:24.538Z,1.20
2022-09-10T01:12:09.698Z,1.40
2022-09-10T01:15:07.135Z,1.50
2022-09-10T01:18:05.148Z,1.23
2022-09-10T01:20:47.197Z,1.20
2022-09-10T01:23:26.287Z,1.30
2022-09-10T01:26:06.367Z,1.27
2022-09-10T01:28:40.077Z,1.20
2022-09-10T01:31:16.344Z,1.10
2022-09-10T01:33:52.274Z,1.00
2022-09-10T01:36:28.389Z,1.10
2022-09-10T01:38:55.772Z,0.90
2022-09-10T01:41:25.907Z,1.10
2022-09-10T01:43:52.764Z,0.90
2022-09-10T01:46:45.492Z,0.80
2022-09-10T01:49:32.828Z,1.10
2022-09-10T01:52:10.548Z,1.10
2022-09-10T01:55:07.248Z,1.00
2022-09-10T01:57:55.425Z,0.90
2022-09-10T02:00:26.571Z,1.10
2022-09-10T02:03:04.171Z,1.17
2022-09-10T02:05:36.297Z,0.90
2022-09-10T02:08:11.683Z,1.00
2022-09-10T02:11:01.238Z,0.90
2022-09-10T02:13:34.234Z,1.00
2022-09-10T02:16:22.217Z,1.20
2022-09-10T02:18:49.725Z,1.03
2022-09-10T02:21:17.126Z,1.07
2022-09-10T02:23:48.936Z,1.00
2022-09-10T02:26:16.271Z,1.10
2022-09-10T02:28:44.075Z,1.07
2022-09-10T02:31:12.788Z,1.10
2022-09-10T02:33:39.771Z,0.93
2022-09-10T02:36:07.063Z,1.10
2022-09-10T02:38:34.148Z,1.10
2022-09-10T02:41:01.103Z,1.60
2022-09-10T02:43:29.032Z,1.40
2022-09-10T02:45:59.368Z,1.33
2022-09-10T02:48:31.077Z,1.30
2022-09-10T02:50:58.872Z,1.10
2022-09-10T02:53:27.703Z,1.23
2022-09-10T02:55:57.880Z,1.00
2022-09-10T02:58:24.873Z,1.33
2022-09-10T03:00:51.827Z,1.20
2022-09-10T03:03:18.732Z,1.03
2022-09-10T03:05:45.592Z,1.00
2022-09-10T03:08:13.908Z,1.17
2022-09-10T03:10:45.371Z,1.20
2022-09-10T03:13:12.684Z,1.20
2022-09-10T03:15:39.692Z,1.00
2022-09-10T03:18:06.809Z,1.10
2022-09-10T03:20:36.428Z,1.20
2022-09-10T03:23:05.921Z,0.90
2022-09-10T03:25:32.875Z,1.00
2022-09-10T03:27:59.883Z,1.00
2022-09-10T03:30:27.734Z,0.93
2022-09-10T03:32:55.036Z,1.00
2022-09-10T03:35:22.472Z,1.10
2022-09-10T03:37:49.670Z,1.10
2022-09-10T03:40:17.737Z,1.13
2022-09-10T03:42:44.728Z,1.10
2022-09-10T03:45:12.143Z,0.93
2022-09-10T03:47:39.529Z,1.00
2022-09-10T03:50:07.387Z,1.10
2022-09-10T03:52:35.784Z,0.80
2022-09-10T03:55:03.443Z,0.90
2022-09-10T03:57:30.319Z,1.13
2022-09-10T03:59:57.234Z,1.10
2022-09-10T04:02:24.959Z,1.07
2022-09-10T04:04:52.007Z,0.90
2022-09-10T04:07:18.937Z,0.77
2022-09-10T04:09:46.327Z,0.97
2022-09-10T04:12:13.268Z,1.00
2022-09-10T04:14:40.379Z,0.80
2022-09-10T04:17:07.259Z,1.10
2022-09-10T04:19:35.412Z,1.10
2022-09-10T04:22:03.085Z,0.80
2022-09-10T04:24:31.545Z,0.70
2022-09-10T04:26:59.090Z,0.67
2022-09-10T04:29:25.979Z,0.93
2022-09-10T04:31:54.306Z,0.77
2022-09-10T04:34:22.721Z,0.90
2022-09-10T04:36:50.122Z,0.87
2022-09-10T04:39:18.483Z,1.37
2022-09-10T04:41:46.302Z,1.00
2022-09-10T04:44:13.712Z,1.00
2022-09-10T04:46:42.361Z,1.17
2022-09-10T04:49:11.149Z,0.90
2022-09-10T04:51:38.007Z,0.87
2022-09-10T04:54:04.948Z,0.80
2022-09-10T04:56:36.577Z,1.03
2022-09-10T04:59:04.771Z,0.80
2022-09-10T05:01:35.212Z,0.77
2022-09-10T05:04:03.469Z,1.00
2022-09-10T05:06:30.915Z,1.00
2022-09-10T05:08:58.483Z,1.10
2022-09-10T05:11:26.413Z,0.90
2022-09-10T05:13:54.038Z,0.90
2022-09-10T05:16:23.559Z,0.83
2022-09-10T05:18:50.526Z,0.80
2022-09-10T05:21:19.004Z,0.80
2022-09-10T05:23:46.162Z,0.90
2022-09-10T05:26:13.063Z,0.93
2022-09-10T05:28:40.106Z,0.90
2022-09-10T05:31:09.786Z,0.97
2022-09-10T05:33:40.776Z,0.90
2022-09-10T05:36:10.828Z,1.00
2022-09-10T05:38:40.100Z,1.23
2022-09-10T05:41:11.166Z,1.00
2022-09-10T05:43:42.135Z,1.00
2022-09-10T05:46:10.726Z,0.97
2022-09-10T05:48:41.894Z,1.00
2022-09-10T05:51:10.981Z,0.80
2022-09-10T05:53:39.237Z,0.63
2022-09-10T05:56:07.419Z,1.00
2022-09-10T05:58:36.016Z,0.80
2022-09-10T06:01:03.444Z,1.07
2022-09-10T06:03:31.848Z,0.90
2022-09-10T06:06:01.206Z,0.90
2022-09-10T06:08:33.025Z,0.70
2022-09-10T06:11:06.647Z,0.90
2022-09-10T06:13:42.268Z,0.93
2022-09-10T06:16:09.734Z,0.80
2022-09-10T06:18:37.223Z,0.80
2022-09-10T06:21:08.865Z,0.80
2022-09-10T06:23:39.325Z,1.30
2022-09-10T06:26:18.472Z,1.50
2022-09-10T06:28:47.512Z,1.67
2022-09-10T06:31:17.366Z,1.20
2022-09-10T06:33:46.742Z,1.13
2022-09-10T06:36:16.143Z,0.90
2022-09-10T06:38:45.067Z,0.90
2022-09-10T06:41:14.270Z,1.00
2022-09-10T06:43:48.425Z,0.80
2022-09-10T06:47:10.658Z,1.17
2022-09-10T06:49:21.699Z,1.00
2022-09-10T06:51:50.265Z,1.00
2022-09-10T06:54:18.957Z,1.03
2022-09-10T06:56:48.878Z,0.90
2022-09-10T06:59:17.079Z,1.10
2022-09-10T07:01:47.680Z,0.83
2022-09-10T07:04:15.357Z,1.00
2022-09-10T07:06:42.826Z,1.00
2022-09-10T07:09:15.633Z,1.07
2022-09-10T07:11:52.822Z,1.00
2022-09-10T07:14:19.782Z,1.00
2022-09-10T07:16:47.523Z,0.90
2022-09-10T07:19:17.730Z,1.17
2022-09-10T07:21:45.788Z,1.00
2022-09-10T07:24:14.891Z,0.90
2022-09-10T07:27:00.698Z,0.80
2022-09-10T07:29:31.241Z,0.80
2022-09-10T07:31:58.793Z,0.80
2022-09-10T07:34:26.866Z,0.90
2022-09-10T07:36:56.747Z,0.90
2022-09-10T07:39:25.894Z,1.00
2022-09-10T07:41:53.726Z,1.00
2022-09-10T07:44:24.582Z,1.10
2022-09-10T07:46:52.592Z,0.97
2022-09-10T07:49:20.807Z,0.80
2022-09-10T07:51:57.607Z,0.90
2022-09-10T07:54:28.544Z,0.90
2022-09-10T07:56:57.110Z,0.90
2022-09-10T07:59:23.983Z,1.00
2022-09-10T08:01:55.789Z,1.00
2022-09-10T08:04:23.542Z,0.90
2022-09-10T08:06:51.972Z,0.80
2022-09-10T08:09:21.694Z,0.90
2022-09-10T08:11:53.803Z,1.20
2022-09-10T08:14:23.355Z,0.90
2022-09-10T08:16:53.619Z,1.17
2022-09-10T08:19:21.467Z,1.03
2022-09-10T08:21:48.802Z,1.00
2022-09-10T08:24:23.244Z,1.00
2022-09-10T08:26:50.884Z,1.20
2022-09-10T08:29:19.435Z,1.13
2022-09-10T08:31:46.386Z,1.27
2022-09-10T08:34:18.649Z,1.80
2022-09-10T08:36:51.302Z,1.70
2022-09-10T08:39:18.161Z,1.50
2022-09-10T08:42:07.252Z,1.33
2022-09-10T08:44:52.770Z,1.23
2022-09-10T08:47:30.021Z,1.40
2022-09-10T08:50:11.125Z,1.60
2022-09-10T08:52:48.903Z,1.70
2022-09-10T08:55:22.785Z,1.97
2022-09-10T08:58:03.343Z,1.60
2022-09-10T09:00:34.201Z,1.90
2022-09-10T09:03:20.573Z,1.93
2022-09-10T09:05:53.718Z,1.80
2022-09-10T09:08:28.366Z,1.60
2022-09-10T09:11:18.064Z,1.53
2022-09-10T09:14:11.308Z,1.70
2022-09-10T09:16:53.210Z,1.60
2022-09-10T09:19:53.370Z,1.50
2022-09-10T09:22:27.384Z,1.50
2022-09-10T09:25:09.965Z,1.20
2022-09-10T09:27:41.627Z,1.40
2022-09-10T09:30:42.208Z,1.27
2022-09-10T09:33:16.738Z,1.10
2022-09-10T09:36:01.875Z,1.10
2022-09-10T09:38:35.641Z,0.97
2022-09-10T09:41:16.354Z,1.20
2022-09-10T09:43:52.443Z,1.30
2022-09-10T09:46:22.594Z,1.30
2022-09-10T09:48:57.669Z,1.20
2022-09-10T09:51:27.818Z,1.40
2022-09-10T09:54:25.791Z,1.47
2022-09-10T09:56:54.689Z,1.37
2022-09-10T09:59:31.875Z,1.40
2022-09-10T10:02:15.458Z,1.40
2022-09-10T10:04:59.246Z,1.17
2022-09-10T10:07:33.558Z,1.40
2022-09-10T10:10:10.243Z,1.30
2022-09-10T10:12:43.086Z,1.37
2022-09-10T10:15:35.614Z,0.97
2022-09-10T10:18:22.533Z,1.10
2022-09-10T10:21:04.231Z,1.10
2022-09-10T10:23:36.637Z,1.23
2022-09-10T10:26:31.531Z,1.03
2022-09-10T10:29:06.297Z,1.20
2022-09-10T10:31:47.115Z,1.00
2022-09-10T10:34:16.620Z,1.20
2022-09-10T10:37:16.087Z,1.10
2022-09-10T10:40:21.739Z,1.20
2022-09-10T10:43:06.669Z,1.10
2022-09-10T10:45:49.208Z,1.13
2022-09-10T10:48:47.777Z,1.20
2022-09-10T10:51:23.692Z,1.33
2022-09-10T10:54:04.724Z,1.20
2022-09-10T10:56:42.602Z,1.00
2022-09-10T10:59:15.599Z,1.27
2022-09-10T11:01:51.799Z,1.70
2022-09-10T11:04:45.205Z,1.60
2022-09-10T11:07:40.905Z,1.40
2022-09-10T11:10:33.037Z,1.30
2022-09-10T11:13:18.344Z,1.40
2022-09-10T11:16:02.658Z,1.30
2022-09-10T11:18:43.671Z,1.13
2022-09-10T11:21:22.630Z,1.20
2022-09-10T11:24:16.964Z,1.10
2022-09-10T11:26:56.685Z,1.20
2022-09-10T11:29:44.136Z,1.40
2022-09-10T11:32:39.404Z,1.20
2022-09-10T11:35:26.686Z,1.50
2022-09-10T11:37:56.447Z,1.40
2022-09-10T11:40:52.158Z,0.90
2022-09-10T11:43:58.244Z,1.10
2022-09-10T11:46:32.388Z,0.80
2022-09-10T11:49:16.182Z,1.00
2022-09-10T11:51:44.945Z,1.00
2022-09-10T11:54:18.119Z,0.90
2022-09-10T11:57:06.735Z,1.07
2022-09-10T11:59:55.658Z,1.00
2022-09-10T12:02:50.580Z,1.50
2022-09-10T12:05:35.961Z,1.27
2022-09-10T12:08:05.815Z,1.20
2022-09-10T12:10:49.779Z,1.10
2022-09-10T12:13:16.882Z,1.00
2022-09-10T12:16:02.082Z,1.00
2022-09-10T12:18:45.036Z,1.63
2022-09-10T12:21:30.097Z,1.80
2022-09-10T12:23:57.406Z,5.73
2022-09-10T12:26:24.668Z,11.13
2022-09-10T12:28:51.469Z,9.97
2022-09-10T12:31:20.679Z,7.30
2022-09-10T12:33:47.586Z,6.27
2022-09-10T12:36:34.783Z,3.90
2022-09-10T12:39:25.281Z,2.57
2022-09-10T12:41:52.790Z,3.03
2022-09-10T12:44:34.820Z,3.73
2022-09-10T12:47:16.870Z,2.67
2022-09-10T12:49:50.386Z,3.43
2022-09-10T12:52:35.512Z,3.83
2022-09-10T12:55:21.728Z,3.10
2022-09-10T12:57:58.560Z,3.50
2022-09-10T13:00:39.039Z,2.90
2022-09-10T13:03:15.598Z,2.50
2022-09-10T13:05:45.658Z,1.80
2022-09-10T13:08:15.536Z,1.80
2022-09-10T13:11:07.835Z,1.47
2022-09-10T13:13:46.421Z,1.50
2022-09-10T13:16:27.599Z,1.30
2022-09-10T13:19:14.321Z,1.40
2022-09-10T13:21:41.234Z,1.50
2022-09-10T13:24:34.037Z,1.47
2022-09-10T13:27:05.602Z,1.50
2022-09-10T13:29:34.292Z,1.40
2022-09-10T13:32:11.229Z,1.50
2022-09-10T13:35:07.448Z,1.67
2022-09-10T13:38:03.251Z,1.90
2022-09-10T13:40:48.909Z,6.67
2022-09-10T13:43:28.039Z,7.77
2022-09-10T13:46:06.663Z,6.40
2022-09-10T13:49:00.129Z,4.77
2022-09-10T13:51:41.621Z,5.07
2022-09-10T13:54:23.814Z,3.30
2022-09-10T13:56:51.377Z,2.73
2022-09-10T13:59:30.847Z,2.67
2022-09-10T14:01:59.473Z,1.90
2022-09-10T14:04:31.728Z,1.40
2022-09-10T14:07:05.190Z,1.70
2022-09-10T14:09:33.095Z,1.43
2022-09-10T14:12:03.859Z,1.30
2022-09-10T14:14:38.191Z,1.50
2022-09-10T14:17:13.460Z,1.63
2022-09-10T14:19:44.181Z,1.80
2022-09-10T14:22:32.015Z,2.57
2022-09-10T14:25:01.566Z,2.50
2022-09-10T14:27:37.623Z,2.67
2022-09-10T14:30:23.096Z,2.10
2022-09-10T14:32:51.882Z,2.07
2022-09-10T14:35:43.019Z,1.80
2022-09-10T14:38:35.979Z,1.70
2022-09-10T14:41:17.533Z,1.80
2022-09-10T14:43:44.607Z,1.50
2022-09-10T14:46:34.059Z,1.50
2022-09-10T14:49:02.984Z,1.30
2022-09-10T14:51:30.675Z,1.37
2022-09-10T14:53:59.973Z,1.40
2022-09-10T14:56:36.400Z,1.10
2022-09-10T14:59:11.819Z,1.20
2022-09-10T15:01:40.949Z,1.40
2022-09-10T15:04:14.088Z,1.50
2022-09-10T15:06:43.904Z,1.70
2022-09-10T15:09:15.049Z,1.50
2022-09-10T15:12:03.808Z,1.93
2022-09-10T15:14:32.558Z,1.93
2022-09-10T15:17:00.092Z,1.80
2022-09-10T15:19:27.882Z,1.60
2022-09-10T15:21:54.921Z,1.60
2022-09-10T15:24:23.006Z,1.40
2022-09-10T15:26:50.526Z,1.37
2022-09-10T15:29:20.674Z,1.40
2022-09-10T15:31:48.965Z,1.50
2022-09-10T15:34:16.149Z,1.60
2022-09-10T15:36:43.136Z,1.70
2022-09-10T15:39:13.153Z,1.60
2022-09-10T15:41:44.580Z,1.87
2022-09-10T15:44:12.272Z,1.30
2022-09-10T15:46:45.559Z,1.87
2022-09-10T15:49:12.464Z,1.37
2022-09-10T15:51:39.335Z,1.40
2022-09-10T15:54:06.868Z,1.30
2022-09-10T15:56:33.716Z,1.43
2022-09-10T15:59:00.986Z,1.40
2022-09-10T16:01:31.019Z,1.30
2022-09-10T16:04:02.837Z,1.37
2022-09-10T16:06:33.691Z,1.27
2022-09-10T16:09:03.539Z,1.20
2022-09-10T16:11:32.951Z,1.30
2022-09-10T16:14:04.584Z,1.37
2022-09-10T16:16:32.977Z,1.40
2022-09-10T16:19:00.851Z,1.20
2022-09-10T16:21:33.648Z,1.20
2022-09-10T16:24:01.901Z,1.50
2022-09-10T16:26:31.639Z,1.20
2022-09-10T16:29:00.286Z,1.27
2022-09-10T16:31:39.217Z,1.20
2022-09-10T16:34:08.766Z,1.40
2022-09-10T16:36:39.982Z,1.33
2022-09-10T16:39:12.416Z,1.40
2022-09-10T16:41:41.387Z,1.40
2022-09-10T16:44:09.203Z,1.47
2022-09-10T16:46:36.110Z,1.33
2022-09-10T16:49:03.108Z,1.20
2022-09-10T16:51:30.286Z,1.30
2022-09-10T16:54:02.462Z,1.20
2022-09-10T16:56:39.978Z,1.20
2022-09-10T16:59:09.767Z,1.40
2022-09-10T17:01:37.559Z,1.63
2022-09-10T17:04:06.784Z,1.43
2022-09-10T17:06:34.936Z,1.53
2022-09-10T17:09:02.427Z,1.97
2022-09-10T17:11:31.813Z,2.00
2022-09-10T17:14:01.333Z,1.57
2022-09-10T17:16:37.673Z,1.40
2022-09-10T17:19:14.567Z,1.47
2022-09-10T17:21:43.877Z,1.43
2022-09-10T17:24:12.514Z,1.63
2022-09-10T17:26:40.859Z,2.00
2022-09-10T17:29:10.739Z,1.80
2022-09-10T17:31:37.608Z,1.87
2022-09-10T17:34:04.907Z,1.80
2022-09-10T17:36:33.574Z,1.60
2022-09-10T17:39:00.744Z,1.90
2022-09-10T17:41:28.568Z,1.80
2022-09-10T17:43:57.716Z,1.50
2022-09-10T17:46:25.294Z,1.40
2022-09-10T17:48:53.666Z,1.77
2022-09-10T17:51:26.091Z,1.43
2022-09-10T17:53:55.277Z,1.50
2022-09-10T17:56:24.089Z,1.53
2022-09-10T17:58:57.471Z,1.67
2022-09-10T18:01:30.018Z,1.43
2022-09-10T18:03:57.161Z,1.60
2022-09-10T18:06:29.201Z,1.70
2022-09-10T18:09:00.841Z,1.53
2022-09-10T18:11:31.293Z,1.43
2022-09-10T18:13:59.416Z,1.50
2022-09-10T18:16:28.778Z,1.33
2022-09-10T18:18:59.341Z,1.57
2022-09-10T18:21:30.987Z,1.40
2022-09-10T18:24:00.434Z,1.57
2022-09-10T18:26:33.039Z,1.57
2022-09-10T18:29:02.798Z,1.50
2022-09-10T18:31:32.363Z,1.30
2022-09-10T18:34:00.708Z,1.30
2022-09-10T18:36:31.550Z,1.30
2022-09-10T18:39:02.182Z,1.40
2022-09-10T18:41:31.700Z,1.60
2022-09-10T18:44:04.123Z,1.47
2022-09-10T18:46:33.117Z,1.33
2022-09-10T18:49:00.384Z,1.50
2022-09-10T18:51:29.831Z,1.60
2022-09-10T18:54:01.157Z,1.40
2022-09-10T18:56:32.102Z,1.50
2022-09-10T18:59:01.694Z,1.20
2022-09-10T19:01:31.352Z,1.20
2022-09-10T19:03:59.079Z,1.40
2022-09-10T19:06:28.934Z,1.10
2022-09-10T19:08:58.905Z,1.10
2022-09-10T19:11:30.240Z,1.03
2022-09-10T19:13:57.592Z,1.40
2022-09-10T19:16:27.427Z,1.50
2022-09-10T19:18:57.136Z,1.40
2022-09-10T19:21:26.355Z,1.53
2022-09-10T19:23:59.321Z,1.43
2022-09-10T19:26:29.696Z,1.47
2022-09-10T19:29:01.188Z,1.47
2022-09-10T19:31:30.360Z,1.50
2022-09-10T19:33:59.903Z,9.33
2022-09-10T19:36:27.879Z,10.70
2022-09-10T19:38:55.229Z,8.70
2022-09-10T19:41:22.626Z,3.57
2022-09-10T19:43:51.210Z,1.90
2022-09-10T19:46:20.337Z,1.53
2022-09-10T19:48:48.274Z,1.60
2022-09-10T19:51:20.146Z,1.43
2022-09-10T19:53:49.432Z,1.67
2022-09-10T19:56:20.578Z,1.50
2022-09-10T19:58:52.497Z,1.60
2022-09-10T20:01:40.898Z,1.20
2022-09-10T20:04:10.420Z,1.23
2022-09-10T20:06:37.543Z,1.40
2022-09-10T20:09:06.148Z,1.40
2022-09-10T20:11:35.150Z,1.27
2022-09-10T20:14:08.319Z,1.43
2022-09-10T20:16:44.007Z,1.50
2022-09-10T20:19:18.342Z,1.40
2022-09-10T20:21:47.573Z,1.30
2022-09-10T20:24:15.014Z,1.17
2022-09-10T20:26:43.731Z,1.60
2022-09-10T20:29:13.137Z,1.27
2022-09-10T20:31:41.726Z,1.27
2022-09-10T20:34:12.373Z,1.10
2022-09-10T20:36:42.313Z,1.10
2022-09-10T20:39:11.934Z,1.33
2022-09-10T20:41:40.124Z,1.40
2022-09-10T20:44:07.604Z,1.47
2022-09-10T20:46:34.619Z,1.50
2022-09-10T20:49:03.230Z,1.87
2022-09-10T20:51:36.056Z,1.30
2022-09-10T20:54:05.380Z,1.70
2022-09-10T20:56:32.565Z,1.57
2022-09-10T20:58:59.918Z,1.70
2022-09-10T21:01:28.544Z,1.50
2022-09-10T21:03:59.257Z,1.80
2022-09-10T21:06:31.613Z,1.50
2022-09-10T21:08:59.318Z,1.87
2022-09-10T21:11:29.296Z,1.63
2022-09-10T21:13:58.224Z,1.50
2022-09-10T21:16:28.459Z,1.50
2022-09-10T21:18:57.524Z,1.60
2022-09-10T21:21:27.042Z,1.83
2022-09-10T21:23:56.429Z,1.67
2022-09-10T21:26:28.299Z,1.50
2022-09-10T21:28:57.967Z,1.30
2022-09-10T21:31:27.328Z,1.43
2022-09-10T21:34:00.609Z,1.60
2022-09-10T21:36:30.920Z,1.50
2022-09-10T21:39:00.000Z,1.60
2022-09-10T21:41:32.541Z,1.60
2022-09-10T21:44:00.858Z,1.70
2022-09-10T21:46:29.532Z,1.70
2022-09-10T21:48:56.652Z,1.80
2022-09-10T21:51:23.622Z,1.40
2022-09-10T21:53:59.399Z,1.60
2022-09-10T21:56:29.491Z,1.50
2022-09-10T21:58:58.016Z,1.40
2022-09-10T22:01:30.153Z,1.70
2022-09-10T22:04:00.484Z,1.50
2022-09-10T22:06:30.053Z,1.30
2022-09-10T22:09:02.294Z,1.17
2022-09-10T22:11:31.462Z,1.10
2022-09-10T22:14:12.030Z,1.00
2022-09-10T22:16:39.118Z,1.07
2022-09-10T22:19:12.090Z,1.23
2022-09-10T22:21:39.516Z,1.30
2022-09-10T22:24:07.182Z,1.17
2022-09-10T22:26:35.014Z,1.30
2022-09-10T22:29:03.350Z,1.30
2022-09-10T22:31:33.189Z,1.17
2022-09-10T22:34:10.182Z,1.20
2022-09-10T22:36:39.763Z,1.50
2022-09-10T22:39:10.387Z,1.40
2022-09-10T22:41:37.604Z,1.30
2022-09-10T22:44:05.033Z,1.33
2022-09-10T22:46:33.458Z,1.40
2022-09-10T22:49:01.263Z,2.00
2022-09-10T22:51:30.643Z,1.73
2022-09-10T22:53:58.227Z,1.87
2022-09-10T22:56:26.517Z,1.30
2022-09-10T22:58:55.606Z,1.43
2022-09-10T23:01:35.483Z,1.33
2022-09-10T23:04:05.047Z,1.60
2022-09-10T23:06:33.411Z,1.40
2022-09-10T23:09:12.372Z,1.40
2022-09-10T23:11:40.518Z,1.47
2022-09-10T23:14:11.338Z,1.20
2022-09-10T23:16:40.423Z,1.50
2022-09-10T23:19:12.634Z,1.50
2022-09-10T23:21:45.624Z,1.40
2022-09-10T23:24:14.580Z,1.80
2022-09-10T23:26:42.273Z,1.77
2022-09-10T23:29:09.863Z,1.50
2022-09-10T23:31:38.650Z,1.33
2022-09-10T23:34:12.198Z,1.50
2022-09-10T23:36:42.445Z,1.57
2022-09-10T23:39:13.936Z,1.50
2022-09-10T23:41:41.745Z,1.20
2022-09-10T23:44:09.512Z,1.40
2022-09-10T23:46:36.914Z,1.40
2022-09-10T23:49:04.537Z,1.63
2022-09-10T23:51:31.998Z,1.40
2022-09-10T23:53:59.396Z,1.53
2022-09-10T23:56:28.420Z,1.27
2022-09-10T23:58:56.447Z,1.70
